createdAt,value
2017-12-30T00:01:54.869Z,97.40
2017-12-30T00:04:23.256Z,96.60
2017-12-30T00:06:50.864Z,96.60
2017-12-30T00:09:19.236Z,97.00
2017-12-30T00:11:47.574Z,97.30
2017-12-30T00:14:15.178Z,97.20
2017-12-30T00:16:42.770Z,96.20
2017-12-30T00:19:11.113Z,96.30
2017-12-30T00:21:38.778Z,96.20
2017-12-30T00:24:06.653Z,96.00
2017-12-30T00:26:35.160Z,96.50
2017-12-30T00:29:02.753Z,96.00
2017-12-30T00:31:31.991Z,96.30
2017-12-30T00:34:00.133Z,95.60
2017-12-30T00:36:30.547Z,95.60
2017-12-30T00:39:00.792Z,95.70
2017-12-30T00:41:28.421Z,95.30
2017-12-30T00:43:57.586Z,95.10
2017-12-30T00:46:31.988Z,95.20
2017-12-30T00:48:59.549Z,95.20
2017-12-30T00:51:28.766Z,95.50
2017-12-30T00:53:58.832Z,95.40
2017-12-30T00:56:28.678Z,95.40
2017-12-30T00:58:56.866Z,96.10
2017-12-30T01:01:24.457Z,96.50
2017-12-30T01:03:53.146Z,96.50
2017-12-30T01:06:21.371Z,96.40
2017-12-30T01:08:49.811Z,96.90
2017-12-30T01:11:18.197Z,96.80
2017-12-30T01:13:47.019Z,96.80
2017-12-30T01:16:15.422Z,96.90
2017-12-30T01:18:43.561Z,97.10
2017-12-30T01:21:11.155Z,97.40
2017-12-30T01:23:38.911Z,97.30
2017-12-30T01:26:06.536Z,97.60
2017-12-30T01:28:34.066Z,98.20
2017-12-30T01:31:03.087Z,98.50
2017-12-30T01:33:31.431Z,98.50
2017-12-30T01:35:59.873Z,98.80
2017-12-30T01:38:28.271Z,98.50
2017-12-30T01:40:56.482Z,99.00
2017-12-30T01:43:24.052Z,99.30
2017-12-30T01:45:58.270Z,99.40
2017-12-30T01:48:28.994Z,99.20
2017-12-30T01:50:58.390Z,99.20
2017-12-30T01:53:28.997Z,99.70
2017-12-30T01:55:57.648Z,99.80
2017-12-30T01:58:26.189Z,99.90
2017-12-30T02:00:53.756Z,99.90
2017-12-30T02:03:22.045Z,99.90
2017-12-30T02:05:49.605Z,99.90
2017-12-30T02:08:18.580Z,99.90
2017-12-30T02:10:46.200Z,99.90
2017-12-30T02:13:14.645Z,99.90
2017-12-30T02:15:43.506Z,99.90
2017-12-30T02:18:11.046Z,99.90
2017-12-30T02:20:39.404Z,99.90
2017-12-30T02:23:07.719Z,99.90
2017-12-30T02:25:35.312Z,99.90
2017-12-30T02:28:04.807Z,99.60
2017-12-30T02:30:32.381Z,99.60
2017-12-30T02:32:59.955Z,99.90
2017-12-30T02:35:27.477Z,99.90
2017-12-30T02:37:55.026Z,99.90
2017-12-30T02:40:23.370Z,99.30
2017-12-30T02:42:51.771Z,99.30
2017-12-30T02:45:19.304Z,98.80
2017-12-30T02:47:46.995Z,98.80
2017-12-30T02:50:15.144Z,99.10
2017-12-30T02:52:44.716Z,98.80
2017-12-30T02:55:12.295Z,98.80
2017-12-30T02:57:39.840Z,98.60
2017-12-30T03:00:08.335Z,97.70
2017-12-30T03:02:35.933Z,98.20
2017-12-30T03:05:03.526Z,97.90
2017-12-30T03:07:32.036Z,98.10
2017-12-30T03:10:01.312Z,98.40
2017-12-30T03:12:28.867Z,98.40
2017-12-30T03:14:56.463Z,98.70
2017-12-30T03:17:24.955Z,99.00
2017-12-30T03:19:52.574Z,99.40
2017-12-30T03:22:20.888Z,97.40
2017-12-30T03:24:49.258Z,97.40
2017-12-30T03:27:16.819Z,97.60
2017-12-30T03:29:45.039Z,96.90
2017-12-30T03:32:13.636Z,96.70
2017-12-30T03:34:41.936Z,96.60
2017-12-30T03:37:09.510Z,95.20
2017-12-30T03:39:37.767Z,96.00
2017-12-30T03:42:06.238Z,95.90
2017-12-30T03:44:36.380Z,94.10
2017-12-30T03:47:05.442Z,94.40
2017-12-30T03:49:33.077Z,95.00
2017-12-30T03:52:00.681Z,95.20
2017-12-30T03:54:28.285Z,95.60
2017-12-30T03:56:56.493Z,94.80
2017-12-30T03:59:24.916Z,96.90
2017-12-30T04:01:54.147Z,96.60
2017-12-30T04:04:22.682Z,96.50
2017-12-30T04:06:50.226Z,96.90
2017-12-30T04:09:18.776Z,97.60
2017-12-30T04:11:46.311Z,97.60
2017-12-30T04:14:15.361Z,97.50
2017-12-30T04:16:44.507Z,97.30
2017-12-30T04:19:15.334Z,97.30
2017-12-30T04:21:47.461Z,97.70
2017-12-30T04:24:15.819Z,98.20
2017-12-30T04:26:44.842Z,98.10
2017-12-30T04:29:12.412Z,98.60
2017-12-30T04:31:39.945Z,98.90
2017-12-30T04:34:08.305Z,99.50
2017-12-30T04:36:35.838Z,99.50
2017-12-30T04:39:03.400Z,99.60
2017-12-30T04:41:31.700Z,99.80
2017-12-30T04:44:01.307Z,99.90
2017-12-30T04:46:29.622Z,99.90
2017-12-30T04:48:57.195Z,99.90
2017-12-30T04:51:25.567Z,99.90
2017-12-30T04:53:53.993Z,99.90
2017-12-30T04:56:21.531Z,99.90
2017-12-30T04:58:49.544Z,99.90
2017-12-30T05:01:17.078Z,99.90
2017-12-30T05:03:46.597Z,99.90
2017-12-30T05:06:15.762Z,99.90
2017-12-30T05:08:43.338Z,99.90
2017-12-30T05:11:10.871Z,99.90
2017-12-30T05:13:38.447Z,99.90
2017-12-30T05:16:05.972Z,99.90
2017-12-30T05:18:33.558Z,99.90
2017-12-30T05:21:01.815Z,99.90
2017-12-30T05:23:29.932Z,99.90
2017-12-30T05:25:57.455Z,99.90
2017-12-30T05:28:25.038Z,99.90
2017-12-30T05:30:52.584Z,99.90
2017-12-30T05:33:20.164Z,99.90
2017-12-30T05:35:48.523Z,99.90
2017-12-30T05:38:16.104Z,99.90
2017-12-30T05:40:46.259Z,99.90
2017-12-30T05:43:14.660Z,99.90
2017-12-30T05:45:43.054Z,99.90
2017-12-30T05:48:11.555Z,99.90
2017-12-30T05:50:39.100Z,99.90
2017-12-30T05:53:07.544Z,99.90
2017-12-30T05:55:35.918Z,99.90
2017-12-30T05:58:03.487Z,99.90
2017-12-30T06:00:31.895Z,99.90
2017-12-30T06:02:59.494Z,99.90
2017-12-30T06:05:27.023Z,99.90
2017-12-30T06:07:55.342Z,99.90
2017-12-30T06:10:23.682Z,99.90
2017-12-30T06:12:52.407Z,99.90
2017-12-30T06:15:19.994Z,99.90
2017-12-30T06:17:50.015Z,99.90
2017-12-30T06:20:18.371Z,99.90
2017-12-30T06:22:46.663Z,99.90
2017-12-30T06:25:15.196Z,99.90
2017-12-30T06:27:42.736Z,99.90
2017-12-30T06:30:11.232Z,99.90
2017-12-30T06:32:39.264Z,99.90
2017-12-30T06:35:06.846Z,99.90
2017-12-30T06:37:34.377Z,99.90
2017-12-30T06:40:02.049Z,99.90
2017-12-30T06:42:29.585Z,99.90
2017-12-30T06:44:57.150Z,99.90
2017-12-30T06:47:25.724Z,99.90
2017-12-30T06:49:53.306Z,99.90
2017-12-30T06:52:20.830Z,99.90
2017-12-30T06:54:48.959Z,99.90
2017-12-30T06:57:17.820Z,99.90
2017-12-30T06:59:45.403Z,99.90
2017-12-30T07:02:13.589Z,99.90
2017-12-30T07:04:41.187Z,99.90
2017-12-30T07:07:09.704Z,99.90
2017-12-30T07:09:37.290Z,99.90
2017-12-30T07:12:05.316Z,99.90
2017-12-30T07:14:32.897Z,99.90
2017-12-30T07:17:01.419Z,99.90
2017-12-30T07:19:28.989Z,99.90
2017-12-30T07:21:56.514Z,99.90
2017-12-30T07:24:24.856Z,99.90
2017-12-30T07:26:52.416Z,99.90
2017-12-30T07:29:20.699Z,99.90
2017-12-30T07:31:48.247Z,99.70
2017-12-30T07:34:17.441Z,99.60
2017-12-30T07:36:44.967Z,99.50
2017-12-30T07:39:13.333Z,99.40
2017-12-30T07:41:41.965Z,99.90
2017-12-30T07:44:10.347Z,99.70
2017-12-30T07:46:37.913Z,99.40
2017-12-30T07:49:05.442Z,99.30
2017-12-30T07:51:34.275Z,98.80
2017-12-30T07:54:01.841Z,98.80
2017-12-30T07:56:30.083Z,99.00
2017-12-30T07:58:57.662Z,98.60
2017-12-30T08:01:26.141Z,98.80
2017-12-30T08:03:53.736Z,98.00
2017-12-30T08:06:22.035Z,97.20
2017-12-30T08:08:49.612Z,97.10
2017-12-30T08:11:17.906Z,96.70
2017-12-30T08:13:47.184Z,96.10
2017-12-30T08:16:14.709Z,96.00
2017-12-30T08:18:42.308Z,96.20
2017-12-30T08:21:09.855Z,96.60
2017-12-30T08:23:37.438Z,96.90
2017-12-30T08:26:04.967Z,96.70
2017-12-30T08:28:33.090Z,96.40
2017-12-30T08:31:01.248Z,96.30
2017-12-30T08:33:30.576Z,97.40
2017-12-30T08:35:58.879Z,97.50
2017-12-30T08:38:26.447Z,97.50
2017-12-30T08:40:55.179Z,96.70
2017-12-30T08:43:23.394Z,97.00
2017-12-30T08:45:50.943Z,97.80
2017-12-30T08:48:18.506Z,96.90
2017-12-30T08:50:46.046Z,96.10
2017-12-30T08:53:14.479Z,95.50
2017-12-30T08:55:42.883Z,95.80
2017-12-30T08:58:11.218Z,95.40
2017-12-30T09:00:39.514Z,95.60
2017-12-30T09:03:07.087Z,95.60
2017-12-30T09:05:35.398Z,95.20
2017-12-30T09:08:04.209Z,95.20
2017-12-30T09:10:31.762Z,95.30
2017-12-30T09:12:59.330Z,95.30
2017-12-30T09:15:27.806Z,94.90
2017-12-30T09:17:56.154Z,94.90
2017-12-30T09:20:24.487Z,94.90
2017-12-30T09:22:52.065Z,94.90
2017-12-30T09:25:20.367Z,94.30
2017-12-30T09:27:48.702Z,94.10
2017-12-30T09:30:16.222Z,94.10
2017-12-30T09:32:45.344Z,93.70
2017-12-30T09:35:13.663Z,93.80
2017-12-30T09:37:41.230Z,93.80
2017-12-30T09:40:09.561Z,93.80
2017-12-30T09:42:37.835Z,93.60
2017-12-30T09:45:06.229Z,93.60
2017-12-30T09:47:36.249Z,93.90
2017-12-30T09:50:03.780Z,93.70
2017-12-30T09:52:32.115Z,93.70
2017-12-30T09:55:00.487Z,93.90
2017-12-30T09:57:28.020Z,93.90
2017-12-30T09:59:57.104Z,93.60
2017-12-30T10:02:25.471Z,93.60
2017-12-30T10:04:53.032Z,93.60
2017-12-30T10:07:21.414Z,93.60
2017-12-30T10:09:48.989Z,93.60
2017-12-30T10:12:17.031Z,93.20
2017-12-30T10:14:45.041Z,93.00
2017-12-30T10:17:12.581Z,93.10
2017-12-30T10:19:40.600Z,93.20
2017-12-30T10:22:08.908Z,93.40
2017-12-30T10:24:36.493Z,93.40
2017-12-30T10:27:04.046Z,94.00
2017-12-30T10:29:32.406Z,94.20
2017-12-30T10:32:00.829Z,93.90
2017-12-30T10:34:29.283Z,93.30
2017-12-30T10:36:56.911Z,93.30
2017-12-30T10:39:25.084Z,93.20
2017-12-30T10:41:53.612Z,93.20
2017-12-30T10:44:22.101Z,93.20
2017-12-30T10:46:49.662Z,93.20
2017-12-30T10:49:17.237Z,93.30
2017-12-30T10:51:44.768Z,93.30
2017-12-30T10:54:12.931Z,93.30
2017-12-30T10:56:40.607Z,93.30
2017-12-30T10:59:09.139Z,93.40
2017-12-30T11:01:38.277Z,93.80
2017-12-30T11:04:07.522Z,93.70
2017-12-30T11:06:36.051Z,93.60
2017-12-30T11:09:04.419Z,94.00
2017-12-30T11:11:31.948Z,93.60
2017-12-30T11:14:00.416Z,93.70
2017-12-30T11:16:28.902Z,93.80
2017-12-30T11:18:57.243Z,94.60
2017-12-30T11:21:25.538Z,94.30
2017-12-30T11:23:53.134Z,94.20
2017-12-30T11:26:23.458Z,94.30
2017-12-30T11:28:51.946Z,94.30
2017-12-30T11:31:20.267Z,94.00
2017-12-30T11:33:50.764Z,94.20
2017-12-30T11:36:22.809Z,94.10
2017-12-30T11:38:51.989Z,93.90
2017-12-30T11:41:21.487Z,93.80
2017-12-30T11:43:50.467Z,93.90
2017-12-30T11:46:18.904Z,94.00
2017-12-30T11:48:47.183Z,94.00
2017-12-30T11:51:15.629Z,94.10
2017-12-30T11:53:44.843Z,94.40
2017-12-30T11:56:13.159Z,94.60
2017-12-30T11:58:40.734Z,94.60
2017-12-30T12:01:08.267Z,95.00
2017-12-30T12:03:36.676Z,95.10
2017-12-30T12:06:04.219Z,95.20
2017-12-30T12:08:31.811Z,95.30
2017-12-30T12:11:00.981Z,95.60
2017-12-30T12:13:29.504Z,95.50
2017-12-30T12:15:58.950Z,96.10
2017-12-30T12:18:27.166Z,95.80
2017-12-30T12:20:55.892Z,95.60
2017-12-30T12:23:23.463Z,95.60
2017-12-30T12:25:51.748Z,95.50
2017-12-30T12:28:19.326Z,95.60
2017-12-30T12:30:46.846Z,95.20
2017-12-30T12:33:15.175Z,94.90
2017-12-30T12:35:43.491Z,94.80
2017-12-30T12:38:11.082Z,94.80
2017-12-30T12:40:40.286Z,94.70
2017-12-30T12:43:07.859Z,94.60
2017-12-30T12:45:37.141Z,94.60
2017-12-30T12:48:04.717Z,94.70
2017-12-30T12:50:32.256Z,94.50
2017-12-30T12:53:00.670Z,94.30
2017-12-30T12:55:28.204Z,94.40
2017-12-30T12:57:56.534Z,94.90
2017-12-30T13:00:24.096Z,94.80
2017-12-30T13:02:52.424Z,94.80
2017-12-30T13:05:19.964Z,94.60
2017-12-30T13:07:48.375Z,94.70
2017-12-30T13:10:15.947Z,94.70
2017-12-30T13:12:43.531Z,94.60
2017-12-30T13:15:11.989Z,94.50
2017-12-30T13:17:40.267Z,94.40
2017-12-30T13:20:09.291Z,94.20
2017-12-30T13:22:37.756Z,94.00
2017-12-30T13:25:06.885Z,93.50
2017-12-30T13:27:34.488Z,93.50
2017-12-30T13:30:02.564Z,93.50
2017-12-30T13:32:30.646Z,93.30
2017-12-30T13:34:58.312Z,93.40
2017-12-30T13:37:25.913Z,93.40
2017-12-30T13:39:53.525Z,93.40
2017-12-30T13:42:21.690Z,93.60
2017-12-30T13:44:50.134Z,93.50
2017-12-30T13:47:17.707Z,93.50
2017-12-30T13:49:45.305Z,93.00
2017-12-30T13:52:12.876Z,93.00
2017-12-30T13:54:41.018Z,93.00
2017-12-30T13:57:08.546Z,92.90
2017-12-30T13:59:36.158Z,92.70
2017-12-30T14:02:04.454Z,92.80
2017-12-30T14:04:32.843Z,92.80
2017-12-30T14:07:01.181Z,92.70
2017-12-30T14:09:28.756Z,92.70
2017-12-30T14:11:56.295Z,92.50
2017-12-30T14:14:24.630Z,92.70
2017-12-30T14:16:52.970Z,92.70
2017-12-30T14:19:22.012Z,92.80
2017-12-30T14:21:49.556Z,92.80
2017-12-30T14:24:17.140Z,93.10
2017-12-30T14:26:45.331Z,93.30
2017-12-30T14:29:13.770Z,93.40
2017-12-30T14:31:41.299Z,93.70
2017-12-30T14:34:09.435Z,93.60
2017-12-30T14:36:36.979Z,93.40
2017-12-30T14:39:05.382Z,93.50
2017-12-30T14:41:33.767Z,93.30
2017-12-30T14:44:02.326Z,93.30
2017-12-30T14:46:30.638Z,93.30
2017-12-30T14:48:58.228Z,93.30
2017-12-30T14:51:26.969Z,93.40
2017-12-30T14:53:57.123Z,93.50
2017-12-30T14:56:26.411Z,93.50
2017-12-30T14:58:55.261Z,93.50
2017-12-30T15:01:23.644Z,93.60
2017-12-30T15:03:52.014Z,93.50
2017-12-30T15:06:20.315Z,93.80
2017-12-30T15:08:48.733Z,93.70
2017-12-30T15:11:16.327Z,93.70
2017-12-30T15:13:43.905Z,93.70
2017-12-30T15:16:11.487Z,93.70
2017-12-30T15:18:40.268Z,93.80
2017-12-30T15:21:07.843Z,93.90
2017-12-30T15:23:36.402Z,93.90
2017-12-30T15:26:04.780Z,94.30
2017-12-30T15:28:35.106Z,94.40
2017-12-30T15:31:03.535Z,94.40
2017-12-30T15:33:31.911Z,94.60
2017-12-30T15:36:01.086Z,94.80
2017-12-30T15:38:29.659Z,94.80
2017-12-30T15:40:57.231Z,94.90
2017-12-30T15:43:25.670Z,94.70
2017-12-30T15:45:53.259Z,94.80
2017-12-30T15:48:22.138Z,94.60
2017-12-30T15:50:49.728Z,94.60
2017-12-30T15:53:18.028Z,94.30
2017-12-30T15:55:46.377Z,94.20
2017-12-30T15:58:13.915Z,94.20
2017-12-30T16:00:41.501Z,94.40
2017-12-30T16:03:09.658Z,94.30
2017-12-30T16:05:38.803Z,94.90
2017-12-30T16:08:06.915Z,95.30
2017-12-30T16:10:35.256Z,95.60
2017-12-30T16:13:03.490Z,95.60
2017-12-30T16:15:32.247Z,95.90
2017-12-30T16:17:59.781Z,95.90
2017-12-30T16:20:27.361Z,95.90
2017-12-30T16:22:56.898Z,95.90
2017-12-30T16:25:25.253Z,95.60
2017-12-30T16:27:54.057Z,96.00
2017-12-30T16:30:23.099Z,95.30
2017-12-30T16:32:51.431Z,95.00
2017-12-30T16:35:20.238Z,95.00
2017-12-30T16:37:47.787Z,95.00
2017-12-30T16:40:15.380Z,94.90
2017-12-30T16:42:43.796Z,95.10
2017-12-30T16:45:12.231Z,95.30
2017-12-30T16:47:40.966Z,95.30
2017-12-30T16:50:09.402Z,95.30
2017-12-30T16:52:36.993Z,95.40
2017-12-30T16:55:07.534Z,95.50
2017-12-30T16:57:36.843Z,95.80
2017-12-30T17:00:05.942Z,96.20
2017-12-30T17:02:35.137Z,96.40
2017-12-30T17:05:03.315Z,96.30
2017-12-30T17:07:30.871Z,96.40
2017-12-30T17:09:58.407Z,96.70
2017-12-30T17:12:26.866Z,97.40
2017-12-30T17:14:54.443Z,97.40
2017-12-30T17:17:21.980Z,97.70
2017-12-30T17:19:50.436Z,97.90
2017-12-30T17:22:19.421Z,98.20
2017-12-30T17:24:47.902Z,98.20
2017-12-30T17:27:15.481Z,98.40
2017-12-30T17:29:43.025Z,98.20
2017-12-30T17:32:10.590Z,98.70
2017-12-30T17:34:38.778Z,98.90
2017-12-30T17:37:06.363Z,99.10
2017-12-30T17:39:35.796Z,99.10
2017-12-30T17:42:03.902Z,99.50
2017-12-30T17:44:32.344Z,99.60
2017-12-30T17:46:59.920Z,99.60
2017-12-30T17:49:28.048Z,99.40
2017-12-30T17:51:55.670Z,99.70
2017-12-30T17:54:24.149Z,99.60
2017-12-30T17:56:53.493Z,99.90
2017-12-30T17:59:21.633Z,99.90
2017-12-30T18:01:49.254Z,99.90
2017-12-30T18:04:20.481Z,99.90
2017-12-30T18:06:49.575Z,99.10
2017-12-30T18:09:18.893Z,99.00
2017-12-30T18:11:47.278Z,98.90
2017-12-30T18:14:14.858Z,98.90
2017-12-30T18:16:44.233Z,99.20
2017-12-30T18:19:12.310Z,99.20
2017-12-30T18:21:39.890Z,99.40
2017-12-30T18:24:07.501Z,99.50
2017-12-30T18:26:35.093Z,99.90
2017-12-30T18:29:04.659Z,99.90
2017-12-30T18:31:33.259Z,99.90
2017-12-30T18:34:01.695Z,99.90
2017-12-30T18:36:30.049Z,99.90
2017-12-30T18:38:58.254Z,99.90
2017-12-30T18:41:26.626Z,99.90
2017-12-30T18:43:55.445Z,99.90
2017-12-30T18:46:25.859Z,99.90
2017-12-30T18:48:53.496Z,99.90
2017-12-30T18:51:22.416Z,99.90
2017-12-30T18:53:50.028Z,99.90
2017-12-30T18:56:18.607Z,99.90
2017-12-30T18:58:47.170Z,99.90
2017-12-30T19:01:15.524Z,99.90
2017-12-30T19:03:44.007Z,99.90
2017-12-30T19:06:12.533Z,99.90
2017-12-30T19:08:42.090Z,99.90
2017-12-30T19:11:13.780Z,99.90
2017-12-30T19:13:42.283Z,99.90
2017-12-30T19:16:09.862Z,99.90
2017-12-30T19:18:38.197Z,99.90
2017-12-30T19:21:09.162Z,99.90
2017-12-30T19:23:37.376Z,99.90
2017-12-30T19:26:04.958Z,99.90
2017-12-30T19:28:33.529Z,99.70
2017-12-30T19:31:01.129Z,99.80
2017-12-30T19:33:31.626Z,99.60
2017-12-30T19:35:59.974Z,99.50
2017-12-30T19:38:27.607Z,99.30
2017-12-30T19:40:56.058Z,99.40
2017-12-30T19:43:28.239Z,99.00
2017-12-30T19:45:55.828Z,99.10
2017-12-30T19:48:24.262Z,98.70
2017-12-30T19:50:53.154Z,98.80
2017-12-30T19:53:21.665Z,98.70
2017-12-30T19:55:49.244Z,98.60
2017-12-30T19:58:17.800Z,98.50
2017-12-30T20:00:45.978Z,98.30
2017-12-30T20:03:14.438Z,98.30
2017-12-30T20:05:42.910Z,98.40
2017-12-30T20:08:10.551Z,98.20
2017-12-30T20:10:38.906Z,98.00
2017-12-30T20:13:09.391Z,97.90
2017-12-30T20:15:37.679Z,97.80
2017-12-30T20:18:06.888Z,97.40
2017-12-30T20:20:34.476Z,97.40
2017-12-30T20:23:03.078Z,97.30
2017-12-30T20:25:31.590Z,97.30
2017-12-30T20:27:59.235Z,97.10
2017-12-30T20:30:27.597Z,96.90
2017-12-30T20:32:56.869Z,96.90
2017-12-30T20:35:26.610Z,96.90
2017-12-30T20:37:54.242Z,96.50
2017-12-30T20:40:22.830Z,96.50
2017-12-30T20:42:51.250Z,96.30
2017-12-30T20:45:19.702Z,96.30
2017-12-30T20:47:48.275Z,96.10
2017-12-30T20:50:16.271Z,96.10
2017-12-30T20:52:43.877Z,96.10
2017-12-30T20:55:12.275Z,96.30
2017-12-30T20:57:39.897Z,96.30
2017-12-30T21:00:08.510Z,96.30
2017-12-30T21:02:36.122Z,96.30
2017-12-30T21:05:04.462Z,96.00
2017-12-30T21:07:32.820Z,95.90
2017-12-30T21:10:00.475Z,95.80
2017-12-30T21:12:28.499Z,95.80
2017-12-30T21:14:58.010Z,95.60
2017-12-30T21:17:26.378Z,95.40
2017-12-30T21:19:54.026Z,95.40
2017-12-30T21:22:22.100Z,95.10
2017-12-30T21:24:50.611Z,94.90
2017-12-30T21:27:19.265Z,94.70
2017-12-30T21:29:46.925Z,94.60
2017-12-30T21:32:15.455Z,94.40
2017-12-30T21:34:43.094Z,94.40
2017-12-30T21:37:12.154Z,94.40
2017-12-30T21:39:42.394Z,93.90
2017-12-30T21:42:10.050Z,93.90
2017-12-30T21:44:37.678Z,93.80
2017-12-30T21:47:06.055Z,93.80
2017-12-30T21:49:35.016Z,93.50
2017-12-30T21:52:03.412Z,93.50
2017-12-30T21:54:30.992Z,93.40
2017-12-30T21:56:59.153Z,93.30
2017-12-30T21:59:27.359Z,93.10
2017-12-30T22:01:54.970Z,93.00
2017-12-30T22:04:23.216Z,93.00
2017-12-30T22:06:50.815Z,93.10
2017-12-30T22:09:19.050Z,92.60
2017-12-30T22:11:46.677Z,92.70
2017-12-30T22:14:14.320Z,92.80
2017-12-30T22:16:42.815Z,93.20
2017-12-30T22:19:10.434Z,92.60
2017-12-30T22:21:39.612Z,91.60
2017-12-30T22:24:08.086Z,91.60
2017-12-30T22:26:36.243Z,91.60
2017-12-30T22:29:03.932Z,91.50
2017-12-30T22:31:32.119Z,91.30
2017-12-30T22:34:00.702Z,91.00
2017-12-30T22:36:28.334Z,91.00
2017-12-30T22:38:55.920Z,90.60
2017-12-30T22:41:24.391Z,90.50
2017-12-30T22:43:55.457Z,90.40
2017-12-30T22:46:23.121Z,90.10
2017-12-30T22:48:50.722Z,90.50
2017-12-30T22:51:18.372Z,90.00
2017-12-30T22:53:45.975Z,89.90
2017-12-30T22:56:13.598Z,89.90
2017-12-30T22:58:41.475Z,89.50
2017-12-30T23:01:09.983Z,89.30
2017-12-30T23:03:37.587Z,88.80
2017-12-30T23:06:06.093Z,89.10
2017-12-30T23:08:34.549Z,88.00
2017-12-30T23:11:03.452Z,88.10
2017-12-30T23:13:32.272Z,87.70
2017-12-30T23:15:59.895Z,87.60
2017-12-30T23:18:27.542Z,87.70
2017-12-30T23:20:56.005Z,87.40
2017-12-30T23:23:24.000Z,87.50
2017-12-30T23:25:52.843Z,87.40
2017-12-30T23:28:21.748Z,88.00
2017-12-30T23:30:50.162Z,88.60
2017-12-30T23:33:18.952Z,87.70
2017-12-30T23:35:47.319Z,88.70
2017-12-30T23:38:15.936Z,88.70
2017-12-30T23:40:45.203Z,90.30
2017-12-30T23:43:14.035Z,90.30
2017-12-30T23:45:41.654Z,90.70
2017-12-30T23:48:09.279Z,91.10
2017-12-30T23:50:37.861Z,91.50
2017-12-30T23:53:05.493Z,91.60
2017-12-30T23:55:33.378Z,92.60
2017-12-30T23:58:01.024Z,92.80
